Time;durP1;ratioP1;P1;durP2;ratioP2;P2;SDS_P1;SDS_P2;PMS_P1;PMS_P2;Temp;Humidity;BMP_temperature;BMP_pressure;BME280_temperature;BME280_humidity;BME280_pressure;Samples;Min_cycle;Max_cycle;Signal;HPM_P1;HPM_P2
2023/03/19 00:01:04;;;;;;;;;;;17.10;63.90;;;;;;5043374;28;1506;-68
2023/03/19 00:03:30;;;;;;;;;;;17.10;63.80;;;;;;5043053;28;1277;-68
2023/03/19 00:05:55;;;;;;;;;;;17.10;63.90;;;;;;5049040;28;2457;-67
2023/03/19 00:08:21;;;;;;;;;;;17.10;63.90;;;;;;5050854;28;2169;-67
2023/03/19 00:10:47;;;;;;;;;;;17.10;63.90;;;;;;5048838;28;2226;-67
2023/03/19 00:13:12;;;;;;;;;;;17.10;63.90;;;;;;5047604;28;2088;-67
2023/03/19 00:15:38;;;;;;;;;;;17.10;63.90;;;;;;5042827;28;944;-67
2023/03/19 00:18:05;;;;;;;;;;;17.10;63.90;;;;;;5041506;28;1973;-67
2023/03/19 00:20:30;;;;;;;;;;;17.10;63.90;;;;;;5039844;28;962;-67
2023/03/19 00:22:55;;;;;;;;;;;17.10;63.90;;;;;;5043819;28;1227;-67
2023/03/19 00:25:21;;;;;;;;;;;17.10;63.90;;;;;;5047468;28;1018;-67
2023/03/19 00:27:46;;;;;;;;;;;17.10;63.90;;;;;;5045554;28;1388;-67
2023/03/19 00:30:13;;;;;;;;;;;17.10;63.90;;;;;;5040728;28;991;-67
2023/03/19 00:32:39;;;;;;;;;;;17.10;64.00;;;;;;5043210;28;1367;-67
2023/03/19 00:35:07;;;;;;;;;;;17.10;63.90;;;;;;5041306;28;861;-67
2023/03/19 00:37:33;;;;;;;;;;;17.00;63.90;;;;;;5044259;28;1968;-67
2023/03/19 00:39:58;;;;;;;;;;;17.00;63.90;;;;;;5039352;28;939;-67
2023/03/19 00:42:24;;;;;;;;;;;17.00;63.90;;;;;;5039956;28;942;-69
2023/03/19 00:44:49;;;;;;;;;;;17.00;63.90;;;;;;5047680;28;1380;-69
2023/03/19 00:47:15;;;;;;;;;;;17.00;64.00;;;;;;5039457;28;793;-68
2023/03/19 00:49:41;;;;;;;;;;;17.00;64.00;;;;;;5038189;28;904;-69
2023/03/19 00:52:06;;;;;;;;;;;17.00;64.00;;;;;;5041258;28;896;-71
2023/03/19 00:54:32;;;;;;;;;;;17.00;64.00;;;;;;5041910;28;1271;-70
2023/03/19 00:56:57;;;;;;;;;;;17.00;64.00;;;;;;5043394;28;1913;-71
2023/03/19 00:59:24;;;;;;;;;;;17.00;64.00;;;;;;5039541;28;1035;-70
2023/03/19 01:01:50;;;;;;;;;;;17.00;64.00;;;;;;5040339;28;927;-71
2023/03/19 01:04:16;;;;;;;;;;;17.00;64.00;;;;;;5047850;28;1520;-70
2023/03/19 01:06:42;;;;;;;;;;;17.00;64.00;;;;;;5040310;28;872;-70
2023/03/19 01:09:07;;;;;;;;;;;17.00;64.00;;;;;;5043282;28;1306;-70
2023/03/19 01:11:33;;;;;;;;;;;17.00;64.00;;;;;;5039460;28;917;-69
2023/03/19 01:13:58;;;;;;;;;;;17.00;64.00;;;;;;5038412;28;1280;-69
2023/03/19 01:16:24;;;;;;;;;;;17.00;64.10;;;;;;5038412;28;1910;-69
2023/03/19 01:18:50;;;;;;;;;;;17.00;64.00;;;;;;5039845;28;745;-69
2023/03/19 01:21:16;;;;;;;;;;;17.00;64.10;;;;;;5040400;28;765;-69
2023/03/19 01:23:41;;;;;;;;;;;17.00;64.10;;;;;;5043179;28;1359;-69
2023/03/19 01:26:07;;;;;;;;;;;17.00;64.10;;;;;;5039999;28;1014;-70
2023/03/19 01:28:32;;;;;;;;;;;17.00;64.10;;;;;;5041855;28;811;-70
2023/03/19 01:30:59;;;;;;;;;;;17.00;64.10;;;;;;5042277;28;1033;-69
2023/03/19 01:33:25;;;;;;;;;;;17.00;64.10;;;;;;5041065;28;1275;-70
2023/03/19 01:35:50;;;;;;;;;;;17.00;64.10;;;;;;5039618;28;854;-71
2023/03/19 01:38:16;;;;;;;;;;;17.00;64.10;;;;;;5038566;28;1961;-72
2023/03/19 01:40:43;;;;;;;;;;;17.00;64.10;;;;;;5038870;28;1024;-69
2023/03/19 01:43:14;;;;;;;;;;;17.00;64.10;;;;;;5039610;28;1363;-69
2023/03/19 01:45:40;;;;;;;;;;;17.00;64.10;;;;;;5040639;28;883;-69
2023/03/19 01:48:06;;;;;;;;;;;17.00;64.10;;;;;;5039808;28;900;-69
2023/03/19 01:50:41;;;;;;;;;;;17.00;64.10;;;;;;5043091;28;902;-69
2023/03/19 01:53:06;;;;;;;;;;;17.00;64.10;;;;;;5042263;28;1289;-69
2023/03/19 01:55:32;;;;;;;;;;;17.00;64.20;;;;;;5042216;28;1077;-69
2023/03/19 01:57:57;;;;;;;;;;;17.00;64.20;;;;;;5046069;28;1959;-69
2023/03/19 02:00:23;;;;;;;;;;;17.00;64.20;;;;;;5043496;28;903;-71
2023/03/19 02:02:51;;;;;;;;;;;17.00;64.20;;;;;;5043064;28;1307;-69
2023/03/19 02:05:24;;;;;;;;;;;17.00;64.20;;;;;;5038633;28;844;-69
2023/03/19 02:07:50;;;;;;;;;;;17.00;64.20;;;;;;5042650;28;931;-69
2023/03/19 02:10:15;;;;;;;;;;;17.00;64.20;;;;;;5042089;28;882;-69
2023/03/19 02:12:41;;;;;;;;;;;17.00;64.20;;;;;;5038078;28;1247;-69
2023/03/19 02:15:06;;;;;;;;;;;17.00;64.20;;;;;;5037961;28;812;-69
2023/03/19 02:17:32;;;;;;;;;;;17.00;64.20;;;;;;5040409;28;1973;-69
2023/03/19 02:20:07;;;;;;;;;;;17.00;64.20;;;;;;5039799;28;847;-69
2023/03/19 02:22:33;;;;;;;;;;;17.00;64.20;;;;;;5037577;28;855;-69
2023/03/19 02:25:02;;;;;;;;;;;17.00;64.20;;;;;;5039491;28;1176;-69
2023/03/19 02:27:27;;;;;;;;;;;17.00;64.30;;;;;;5039447;28;879;-72
2023/03/19 02:29:53;;;;;;;;;;;17.00;65.00;;;;;;5039955;28;1597;-71
2023/03/19 02:32:18;;;;;;;;;;;16.90;64.20;;;;;;5039443;28;792;-71
2023/03/19 02:34:44;;;;;;;;;;;17.00;64.30;;;;;;5040369;28;1268;-71
2023/03/19 02:37:20;;;;;;;;;;;17.00;64.30;;;;;;5038660;28;1890;-71
2023/03/19 02:39:59;;;;;;;;;;;16.90;64.30;;;;;;5036229;28;1271;-71
2023/03/19 02:42:25;;;;;;;;;;;16.90;64.30;;;;;;5040031;28;907;-71
2023/03/19 02:44:50;;;;;;;;;;;17.00;64.30;;;;;;5039154;28;1369;-71
2023/03/19 02:47:16;;;;;;;;;;;17.00;64.30;;;;;;5038362;28;804;-71
2023/03/19 02:49:41;;;;;;;;;;;17.00;64.30;;;;;;5037157;28;1269;-71
2023/03/19 02:52:07;;;;;;;;;;;16.90;64.30;;;;;;5037352;28;848;-71
2023/03/19 02:54:32;;;;;;;;;;;16.90;64.30;;;;;;5036316;28;1221;-70
2023/03/19 02:56:58;;;;;;;;;;;16.90;64.30;;;;;;5037649;28;1922;-70
2023/03/19 02:59:23;;;;;;;;;;;16.90;64.30;;;;;;5039700;28;867;-70
2023/03/19 03:01:49;;;;;;;;;;;16.90;64.30;;;;;;5039827;28;927;-70
2023/03/19 03:04:15;;;;;;;;;;;17.00;64.30;;;;;;5041736;28;1333;-70
2023/03/19 03:06:41;;;;;;;;;;;16.90;64.30;;;;;;5042320;28;935;-70
2023/03/19 03:09:07;;;;;;;;;;;17.00;64.30;;;;;;5039276;28;852;-70
2023/03/19 03:11:32;;;;;;;;;;;16.90;64.30;;;;;;5039592;28;867;-70
2023/03/19 03:13:57;;;;;;;;;;;16.90;64.30;;;;;;5041263;28;1292;-70
2023/03/19 03:16:24;;;;;;;;;;;16.90;64.40;;;;;;5041132;28;1907;-70
2023/03/19 03:18:49;;;;;;;;;;;16.90;64.30;;;;;;5040030;28;1018;-70
2023/03/19 03:21:18;;;;;;;;;;;16.90;64.40;;;;;;5039228;28;824;-71
2023/03/19 03:23:44;;;;;;;;;;;16.90;64.40;;;;;;5040397;28;1248;-71
2023/03/19 03:26:10;;;;;;;;;;;16.90;64.40;;;;;;5038069;28;843;-70
2023/03/19 03:28:36;;;;;;;;;;;16.90;64.40;;;;;;5036253;28;816;-70
2023/03/19 03:31:01;;;;;;;;;;;16.90;64.40;;;;;;5039886;28;899;-71
2023/03/19 03:33:27;;;;;;;;;;;16.90;64.40;;;;;;5038787;28;1314;-70
2023/03/19 03:35:52;;;;;;;;;;;16.90;64.40;;;;;;5037517;28;862;-70
2023/03/19 03:38:18;;;;;;;;;;;16.90;64.40;;;;;;5038885;28;1898;-70
2023/03/19 03:40:43;;;;;;;;;;;16.90;64.40;;;;;;5038808;28;1334;-70
2023/03/19 03:43:09;;;;;;;;;;;16.90;64.40;;;;;;5044869;28;1239;-69
2023/03/19 03:45:35;;;;;;;;;;;16.90;64.40;;;;;;5047597;28;1221;-69
2023/03/19 03:48:00;;;;;;;;;;;16.90;64.40;;;;;;5041389;28;930;-69
2023/03/19 03:50:26;;;;;;;;;;;16.90;64.40;;;;;;5037709;28;1030;-69
2023/03/19 03:52:51;;;;;;;;;;;16.90;64.40;;;;;;5040391;28;1669;-72
2023/03/19 03:55:17;;;;;;;;;;;16.90;64.40;;;;;;5039189;28;900;-72
2023/03/19 03:57:42;;;;;;;;;;;16.90;64.40;;;;;;5038125;28;1898;-71
2023/03/19 04:00:08;;;;;;;;;;;16.90;64.40;;;;;;5038830;28;963;-72
2023/03/19 04:02:34;;;;;;;;;;;16.90;64.40;;;;;;5037820;28;816;-71
2023/03/19 04:04:59;;;;;;;;;;;16.90;64.40;;;;;;5037069;28;1235;-71
2023/03/19 04:07:25;;;;;;;;;;;16.90;64.40;;;;;;5041911;28;883;-71
2023/03/19 04:09:51;;;;;;;;;;;16.90;64.40;;;;;;5041886;28;922;-71
2023/03/19 04:12:17;;;;;;;;;;;16.90;64.40;;;;;;5036591;28;804;-71
2023/03/19 04:14:42;;;;;;;;;;;16.90;64.40;;;;;;5039484;28;1370;-71
2023/03/19 04:17:08;;;;;;;;;;;16.90;64.40;;;;;;5038373;28;1906;-71
2023/03/19 04:19:33;;;;;;;;;;;16.90;64.50;;;;;;5041682;28;824;-70
2023/03/19 04:21:59;;;;;;;;;;;16.90;64.40;;;;;;5042229;28;900;-70
2023/03/19 04:24:24;;;;;;;;;;;16.90;64.40;;;;;;5040402;28;1346;-69
2023/03/19 04:26:53;;;;;;;;;;;16.90;64.40;;;;;;5041586;28;873;-69
2023/03/19 04:29:18;;;;;;;;;;;16.90;64.40;;;;;;5040569;28;777;-70
2023/03/19 04:31:44;;;;;;;;;;;16.90;64.50;;;;;;5042118;28;839;-69
2023/03/19 04:34:11;;;;;;;;;;;16.90;64.40;;;;;;5042154;28;1329;-69
2023/03/19 04:36:37;;;;;;;;;;;16.90;64.50;;;;;;5042954;28;1959;-70
2023/03/19 04:39:03;;;;;;;;;;;16.90;64.50;;;;;;5042598;28;946;-70
2023/03/19 04:41:28;;;;;;;;;;;16.90;64.50;;;;;;5039219;28;1261;-69
2023/03/19 04:43:54;;;;;;;;;;;16.90;64.50;;;;;;5038651;28;1361;-70
2023/03/19 04:46:20;;;;;;;;;;;16.90;64.50;;;;;;5044184;28;903;-69
2023/03/19 04:48:45;;;;;;;;;;;16.90;64.50;;;;;;5038132;28;1116;-70
2023/03/19 04:51:10;;;;;;;;;;;16.90;64.50;;;;;;5040419;28;804;-69
2023/03/19 04:53:36;;;;;;;;;;;16.90;64.50;;;;;;5038914;28;1201;-70
2023/03/19 04:56:02;;;;;;;;;;;16.90;64.50;;;;;;5047320;28;824;-70
2023/03/19 04:58:27;;;;;;;;;;;16.90;64.50;;;;;;5044690;28;1979;-70
2023/03/19 05:00:53;;;;;;;;;;;16.90;64.50;;;;;;5037447;28;916;-70
2023/03/19 05:03:19;;;;;;;;;;;16.90;64.50;;;;;;5044270;28;1322;-70
2023/03/19 05:05:44;;;;;;;;;;;16.90;64.50;;;;;;5039328;28;920;-70
2023/03/19 05:08:12;;;;;;;;;;;16.90;64.50;;;;;;5040619;28;1244;-70
2023/03/19 05:10:38;;;;;;;;;;;16.90;64.50;;;;;;5042059;28;875;-70
2023/03/19 05:13:03;;;;;;;;;;;16.90;64.40;;;;;;5040378;28;1283;-70
2023/03/19 05:15:29;;;;;;;;;;;16.90;64.30;;;;;;5041965;28;883;-69
2023/03/19 05:17:54;;;;;;;;;;;17.00;64.30;;;;;;5042275;28;1910;-70
2023/03/19 05:20:20;;;;;;;;;;;17.00;64.10;;;;;;5041188;28;1475;-70
2023/03/19 05:22:45;;;;;;;;;;;17.00;64.00;;;;;;5039926;28;1320;-69
2023/03/19 05:25:11;;;;;;;;;;;17.10;64.00;;;;;;5040964;28;816;-70
2023/03/19 05:27:36;;;;;;;;;;;17.10;63.80;;;;;;5038914;28;1054;-70
2023/03/19 05:30:03;;;;;;;;;;;17.10;63.70;;;;;;5040286;28;820;-70
2023/03/19 05:32:29;;;;;;;;;;;17.20;63.70;;;;;;5040462;28;911;-69
2023/03/19 05:34:54;;;;;;;;;;;17.20;63.60;;;;;;5038141;28;1264;-69
2023/03/19 05:37:20;;;;;;;;;;;17.20;63.40;;;;;;5038186;28;1971;-68
2023/03/19 05:39:46;;;;;;;;;;;17.20;63.30;;;;;;5041497;28;875;-68
2023/03/19 05:42:11;;;;;;;;;;;17.20;63.20;;;;;;5037776;28;758;-69
2023/03/19 05:44:37;;;;;;;;;;;17.30;63.20;;;;;;5037990;28;1312;-69
2023/03/19 05:47:02;;;;;;;;;;;17.30;63.10;;;;;;5041706;28;875;-68
2023/03/19 05:49:28;;;;;;;;;;;17.30;63.10;;;;;;5037876;28;974;-69
2023/03/19 05:51:53;;;;;;;;;;;17.30;63.00;;;;;;5036420;28;1018;-69
2023/03/19 05:54:18;;;;;;;;;;;17.30;62.90;;;;;;5038016;28;1217;-69
2023/03/19 05:56:44;;;;;;;;;;;17.30;62.90;;;;;;5038383;28;1898;-69
2023/03/19 05:59:09;;;;;;;;;;;17.40;62.90;;;;;;5042905;28;1559;-69
2023/03/19 06:01:35;;;;;;;;;;;17.40;62.80;;;;;;5041516;28;1013;-69
2023/03/19 06:04:00;;;;;;;;;;;17.40;62.80;;;;;;5041292;28;1253;-69
2023/03/19 06:06:26;;;;;;;;;;;17.40;62.70;;;;;;5036459;28;995;-69
2023/03/19 06:08:52;;;;;;;;;;;17.40;62.70;;;;;;5040958;28;896;-69
2023/03/19 06:11:17;;;;;;;;;;;17.50;62.70;;;;;;5038542;28;846;-69
2023/03/19 06:13:43;;;;;;;;;;;17.50;62.70;;;;;;5038185;28;1279;-69
2023/03/19 06:16:09;;;;;;;;;;;17.40;62.60;;;;;;5037310;28;883;-69
2023/03/19 06:18:35;;;;;;;;;;;17.40;62.50;;;;;;5037770;28;1991;-69
2023/03/19 06:21:00;;;;;;;;;;;17.50;62.60;;;;;;5039833;28;844;-69
2023/03/19 06:23:26;;;;;;;;;;;17.40;62.50;;;;;;5038473;28;1336;-69
2023/03/19 06:25:51;;;;;;;;;;;17.50;62.60;;;;;;5042451;28;801;-72
2023/03/19 06:28:17;;;;;;;;;;;17.50;62.50;;;;;;5038802;28;849;-70
2023/03/19 06:30:43;;;;;;;;;;;17.40;62.50;;;;;;5038646;28;825;-71
2023/03/19 06:33:08;;;;;;;;;;;17.50;62.50;;;;;;5037104;28;1343;-72
2023/03/19 06:35:34;;;;;;;;;;;17.50;62.60;;;;;;5036497;28;802;-72
2023/03/19 06:38:00;;;;;;;;;;;17.40;62.50;;;;;;5038786;28;1966;-72
2023/03/19 06:40:25;;;;;;;;;;;17.50;63.30;;;;;;5041645;28;1362;-71
2023/03/19 06:42:51;;;;;;;;;;;17.40;62.50;;;;;;5039028;28;1253;-71
2023/03/19 06:45:18;;;;;;;;;;;17.50;62.60;;;;;;5041348;28;800;-70
2023/03/19 06:47:44;;;;;;;;;;;17.40;62.50;;;;;;5038880;28;825;-70
2023/03/19 06:50:10;;;;;;;;;;;17.40;62.50;;;;;;5033145;28;1312;-68
2023/03/19 06:52:35;;;;;;;;;;;17.40;62.60;;;;;;5037375;28;1935;-70
2023/03/19 06:55:01;;;;;;;;;;;17.40;62.60;;;;;;5039368;28;1553;-70
2023/03/19 06:57:26;;;;;;;;;;;17.40;62.60;;;;;;5038036;28;1899;-68
2023/03/19 06:59:52;;;;;;;;;;;17.50;62.70;;;;;;5040467;28;886;-70
2023/03/19 07:02:17;;;;;;;;;;;17.40;62.60;;;;;;5036285;28;1000;-70
2023/03/19 07:04:43;;;;;;;;;;;17.40;62.70;;;;;;5038258;28;1274;-71
2023/03/19 07:07:08;;;;;;;;;;;17.40;62.70;;;;;;5035052;28;887;-72
2023/03/19 07:09:34;;;;;;;;;;;17.40;62.80;;;;;;5038140;28;1014;-71
2023/03/19 07:11:59;;;;;;;;;;;17.40;62.70;;;;;;5035768;28;812;-71
2023/03/19 07:14:25;;;;;;;;;;;17.40;62.70;;;;;;5039451;28;1295;-72
2023/03/19 07:16:50;;;;;;;;;;;17.40;62.80;;;;;;5037782;28;1965;-69
2023/03/19 07:19:16;;;;;;;;;;;17.40;62.80;;;;;;5039661;28;804;-69
2023/03/19 07:21:41;;;;;;;;;;;17.40;62.80;;;;;;5039318;28;895;-68
2023/03/19 07:24:07;;;;;;;;;;;17.40;62.80;;;;;;5038784;28;1247;-70
2023/03/19 07:26:32;;;;;;;;;;;17.40;62.80;;;;;;5035266;28;958;-70
2023/03/19 07:28:58;;;;;;;;;;;17.40;62.90;;;;;;5036590;28;1093;-69
2023/03/19 07:31:23;;;;;;;;;;;17.40;62.90;;;;;;5037239;28;865;-71
2023/03/19 07:33:48;;;;;;;;;;;17.40;62.90;;;;;;5036925;28;1205;-69
2023/03/19 07:36:14;;;;;;;;;;;17.30;62.90;;;;;;5036871;28;815;-69
2023/03/19 07:38:39;;;;;;;;;;;17.30;62.90;;;;;;5040901;28;1959;-67
2023/03/19 07:41:05;;;;;;;;;;;17.40;63.80;;;;;;5034668;28;1603;-68
2023/03/19 07:43:30;;;;;;;;;;;17.30;62.90;;;;;;5038771;28;1485;-66
2023/03/19 07:45:56;;;;;;;;;;;17.30;62.90;;;;;;5041407;28;1478;-66
2023/03/19 07:48:21;;;;;;;;;;;17.30;63.00;;;;;;5040833;28;907;-66
2023/03/19 07:50:49;;;;;;;;;;;17.30;62.90;;;;;;5037540;28;886;-67
2023/03/19 07:53:14;;;;;;;;;;;17.30;63.00;;;;;;5046657;28;1305;-66
2023/03/19 07:55:40;;;;;;;;;;;17.30;63.60;;;;;;5041409;28;852;-67
2023/03/19 07:58:05;;;;;;;;;;;17.30;63.00;;;;;;5041954;28;1965;-71
2023/03/19 08:00:31;;;;;;;;;;;17.30;63.10;;;;;;5040564;28;900;-70
2023/03/19 08:02:56;;;;;;;;;;;17.30;63.00;;;;;;5039753;28;2064;-70
2023/03/19 08:05:22;;;;;;;;;;;17.30;63.10;;;;;;5041132;28;876;-69
2023/03/19 08:07:48;;;;;;;;;;;17.30;63.10;;;;;;5042767;28;997;-70
2023/03/19 08:10:13;;;;;;;;;;;17.30;63.80;;;;;;5042254;28;1296;-68
2023/03/19 08:12:40;;;;;;;;;;;17.30;63.20;;;;;;5041601;28;1421;-68
2023/03/19 08:15:05;;;;;;;;;;;17.30;63.10;;;;;;5044548;28;1389;-69
2023/03/19 08:17:36;;;;;;;;;;;17.30;63.20;;;;;;5040905;28;1906;-69
2023/03/19 08:20:07;;;;;;;;;;;17.30;63.20;;;;;;5043088;28;1340;-69
2023/03/19 08:22:33;;;;;;;;;;;17.30;63.20;;;;;;5044720;28;1329;-68
2023/03/19 08:24:58;;;;;;;;;;;17.30;63.20;;;;;;5044552;28;1334;-68
2023/03/19 08:27:24;;;;;;;;;;;17.30;63.20;;;;;;5044353;28;1502;-68
2023/03/19 08:29:49;;;;;;;;;;;17.30;63.20;;;;;;5043566;28;1689;-70
2023/03/19 08:32:15;;;;;;;;;;;17.30;63.20;;;;;;5038686;28;1351;-68
2023/03/19 08:34:40;;;;;;;;;;;17.30;63.20;;;;;;5043081;28;1466;-69
2023/03/19 08:37:06;;;;;;;;;;;17.30;63.20;;;;;;5040926;28;1890;-69
2023/03/19 08:39:31;;;;;;;;;;;17.30;63.20;;;;;;5039596;28;1267;-68
2023/03/19 08:41:57;;;;;;;;;;;17.30;63.10;;;;;;5040662;28;846;-68
2023/03/19 08:44:22;;;;;;;;;;;17.30;63.10;;;;;;5041000;28;1285;-67
2023/03/19 08:46:48;;;;;;;;;;;17.30;63.10;;;;;;5042169;28;835;-67
2023/03/19 08:49:14;;;;;;;;;;;17.40;63.10;;;;;;5038720;28;1634;-69
2023/03/19 08:51:39;;;;;;;;;;;17.30;63.00;;;;;;5039131;28;871;-70
2023/03/19 08:54:05;;;;;;;;;;;17.30;62.90;;;;;;5042116;28;1224;-70
2023/03/19 08:56:30;;;;;;;;;;;17.30;62.90;;;;;;5039516;28;1061;-71
2023/03/19 08:58:56;;;;;;;;;;;17.40;63.00;;;;;;5047156;28;1902;-71
2023/03/19 09:01:22;;;;;;;;;;;17.40;62.90;;;;;;5039716;28;1782;-72
2023/03/19 09:03:48;;;;;;;;;;;17.40;62.90;;;;;;5040877;28;1329;-71
2023/03/19 09:06:13;;;;;;;;;;;17.40;62.80;;;;;;5041210;28;796;-69
2023/03/19 09:08:39;;;;;;;;;;;17.40;62.80;;;;;;5044277;28;869;-69
2023/03/19 09:11:04;;;;;;;;;;;17.40;62.80;;;;;;5041924;28;837;-69
2023/03/19 09:13:30;;;;;;;;;;;17.40;62.70;;;;;;5038887;28;1280;-70
2023/03/19 09:15:55;;;;;;;;;;;17.40;62.70;;;;;;5039647;28;962;-69
2023/03/19 09:18:24;;;;;;;;;;;17.40;62.60;;;;;;5039378;28;1910;-71
2023/03/19 09:20:50;;;;;;;;;;;17.50;62.70;;;;;;5039617;28;899;-71
2023/03/19 09:23:15;;;;;;;;;;;17.40;62.70;;;;;;5044303;28;1263;-69
2023/03/19 09:25:40;;;;;;;;;;;17.50;62.70;;;;;;5041017;28;947;-70
2023/03/19 09:28:06;;;;;;;;;;;17.50;62.70;;;;;;5039620;28;990;-69
2023/03/19 09:30:31;;;;;;;;;;;17.50;62.60;;;;;;5039998;28;816;-69
2023/03/19 09:32:57;;;;;;;;;;;17.50;62.60;;;;;;5039652;28;1276;-71
2023/03/19 09:35:22;;;;;;;;;;;17.50;62.60;;;;;;5040628;28;1077;-70
2023/03/19 09:37:48;;;;;;;;;;;17.50;62.60;;;;;;5041837;28;1902;-69
2023/03/19 09:40:21;;;;;;;;;;;17.50;62.50;;;;;;5039069;28;1203;-69
2023/03/19 09:43:05;;;;;;;;;;;17.50;62.60;;;;;;5038570;28;1255;-70
2023/03/19 09:45:31;;;;;;;;;;;17.50;62.50;;;;;;5038298;28;1046;-70
2023/03/19 09:47:57;;;;;;;;;;;17.50;62.50;;;;;;5038424;28;855;-69
2023/03/19 09:50:24;;;;;;;;;;;17.50;62.50;;;;;;5032155;28;1232;-70
2023/03/19 09:52:53;;;;;;;;;;;17.50;62.50;;;;;;5038135;28;1302;-69
2023/03/19 09:55:26;;;;;;;;;;;17.50;62.50;;;;;;5037383;28;1058;-69
2023/03/19 09:57:53;;;;;;;;;;;17.50;62.50;;;;;;5033921;28;1910;-69
2023/03/19 10:00:26;;;;;;;;;;;17.50;62.40;;;;;;5046277;28;828;-69
2023/03/19 10:03:21;;;;;;;;;;;17.50;62.40;;;;;;5039366;28;1329;-70
2023/03/19 10:06:05;;;;;;;;;;;17.50;62.40;;;;;;5031838;28;1298;-67
2023/03/19 10:08:38;;;;;;;;;;;17.50;62.40;;;;;;5037171;28;812;-68
2023/03/19 10:11:03;;;;;;;;;;;17.50;62.40;;;;;;5040194;28;856;-68
2023/03/19 10:13:38;;;;;;;;;;;17.50;62.40;;;;;;5040228;28;1271;-67
2023/03/19 10:16:04;;;;;;;;;;;17.50;62.40;;;;;;5034735;28;1174;-67
2023/03/19 10:18:39;;;;;;;;;;;17.50;62.40;;;;;;5033178;28;1898;-68
2023/03/19 10:21:07;;;;;;;;;;;17.50;62.40;;;;;;5036457;28;864;-68
2023/03/19 10:23:52;;;;;;;;;;;17.50;62.40;;;;;;5041297;28;1374;-68
2023/03/19 10:26:18;;;;;;;;;;;17.50;62.30;;;;;;5043297;28;865;-68
2023/03/19 10:28:45;;;;;;;;;;;17.50;62.40;;;;;;5038437;28;873;-68
2023/03/19 10:31:13;;;;;;;;;;;17.50;62.40;;;;;;5044828;28;808;-68
2023/03/19 10:33:55;;;;;;;;;;;17.60;62.40;;;;;;5038032;28;1364;-68
2023/03/19 10:36:21;;;;;;;;;;;17.50;62.30;;;;;;5038852;28;876;-68
2023/03/19 10:38:46;;;;;;;;;;;17.50;62.40;;;;;;5036560;28;1898;-68
2023/03/19 10:41:30;;;;;;;;;;;17.50;62.30;;;;;;5039331;28;857;-68
2023/03/19 10:43:57;;;;;;;;;;;17.60;62.40;;;;;;5037703;28;1277;-68
2023/03/19 10:46:23;;;;;;;;;;;17.50;62.30;;;;;;5036015;28;923;-68
2023/03/19 10:48:49;;;;;;;;;;;17.50;62.30;;;;;;5038127;28;1014;-69
2023/03/19 10:51:15;;;;;;;;;;;17.50;62.30;;;;;;5039472;28;903;-69
2023/03/19 10:53:41;;;;;;;;;;;17.50;62.30;;;;;;5037757;28;1268;-70
2023/03/19 10:56:19;;;;;;;;;;;17.50;62.40;;;;;;5036575;28;1022;-70
2023/03/19 10:59:14;;;;;;;;;;;17.50;62.40;;;;;;5047150;28;1975;-70
2023/03/19 11:01:40;;;;;;;;;;;17.60;62.40;;;;;;5034853;28;1797;-70
2023/03/19 11:04:27;;;;;;;;;;;17.50;62.40;;;;;;5041963;28;1278;-70
2023/03/19 11:07:00;;;;;;;;;;;17.50;62.40;;;;;;5042006;28;900;-70
2023/03/19 11:09:36;;;;;;;;;;;17.50;62.40;;;;;;5033585;28;946;-70
2023/03/19 11:12:28;;;;;;;;;;;17.50;62.40;;;;;;5037694;28;943;-70
2023/03/19 11:14:55;;;;;;;;;;;17.50;62.40;;;;;;5035365;28;1311;-70
2023/03/19 11:17:26;;;;;;;;;;;17.50;62.40;;;;;;5039450;28;1910;-70
2023/03/19 11:19:56;;;;;;;;;;;17.50;62.40;;;;;;5040235;28;899;-70
2023/03/19 11:22:22;;;;;;;;;;;17.50;62.40;;;;;;5037697;28;883;-70
2023/03/19 11:24:52;;;;;;;;;;;17.50;62.40;;;;;;5037428;28;1258;-70
2023/03/19 11:27:17;;;;;;;;;;;17.50;62.40;;;;;;5040446;28;839;-70
2023/03/19 11:29:43;;;;;;;;;;;17.60;62.50;;;;;;5041385;28;855;-70
2023/03/19 11:32:27;;;;;;;;;;;17.60;62.50;;;;;;5040567;28;978;-70
2023/03/19 11:35:00;;;;;;;;;;;17.50;62.50;;;;;;5044278;28;1386;-70
2023/03/19 11:37:27;;;;;;;;;;;17.50;62.50;;;;;;5047333;28;2177;-70
2023/03/19 11:40:02;;;;;;;;;;;17.50;62.50;;;;;;5040544;28;1319;-69
2023/03/19 11:42:27;;;;;;;;;;;17.50;62.50;;;;;;5040583;28;1482;-69
2023/03/19 11:44:53;;;;;;;;;;;17.50;62.50;;;;;;5042446;28;1295;-70
2023/03/19 11:47:20;;;;;;;;;;;17.50;62.60;;;;;;5040766;28;812;-70
2023/03/19 11:50:07;;;;;;;;;;;17.50;62.60;;;;;;5043003;28;818;-69
2023/03/19 11:52:52;;;;;;;;;;;17.50;62.60;;;;;;5024219;28;1162;-71
2023/03/19 11:55:36;;;;;;;;;;;17.50;62.60;;;;;;5044516;28;887;-70
2023/03/19 11:58:06;;;;;;;;;;;17.50;62.70;;;;;;5041473;28;1907;-70
2023/03/19 12:00:40;;;;;;;;;;;17.50;62.70;;;;;;5033969;28;1275;-70
2023/03/19 12:03:15;;;;;;;;;;;17.50;62.70;;;;;;5042967;28;1364;-70
2023/03/19 12:05:59;;;;;;;;;;;17.50;62.70;;;;;;5039645;28;887;-70
2023/03/19 12:08:28;;;;;;;;;;;17.50;62.70;;;;;;5042865;28;828;-70
2023/03/19 12:11:03;;;;;;;;;;;17.40;62.70;;;;;;5040801;28;935;-71
2023/03/19 12:13:28;;;;;;;;;;;17.40;62.70;;;;;;5042236;28;1288;-70
2023/03/19 12:16:03;;;;;;;;;;;17.50;62.80;;;;;;5041805;28;1015;-70
2023/03/19 12:18:37;;;;;;;;;;;17.50;62.90;;;;;;5041322;28;1957;-70
2023/03/19 12:21:09;;;;;;;;;;;17.50;62.90;;;;;;5041763;28;1485;-70
2023/03/19 12:23:41;;;;;;;;;;;17.50;62.90;;;;;;5024981;28;1234;-71
2023/03/19 12:26:07;;;;;;;;;;;17.40;62.90;;;;;;5041318;28;805;-70
2023/03/19 12:28:42;;;;;;;;;;;17.40;62.90;;;;;;5041334;28;835;-70
2023/03/19 12:31:08;;;;;;;;;;;17.40;63.00;;;;;;5041642;28;896;-70
2023/03/19 12:33:33;;;;;;;;;;;17.40;63.00;;;;;;5041715;28;1279;-70
2023/03/19 12:35:59;;;;;;;;;;;17.40;63.00;;;;;;5043741;28;923;-70
2023/03/19 12:38:35;;;;;;;;;;;17.40;63.00;;;;;;5040112;28;1902;-71
2023/03/19 12:41:06;;;;;;;;;;;17.40;63.00;;;;;;5041303;28;1346;-70
2023/03/19 12:43:33;;;;;;;;;;;17.40;63.00;;;;;;5040663;28;1353;-70
2023/03/19 12:46:03;;;;;;;;;;;17.40;63.00;;;;;;5037566;28;990;-70
2023/03/19 12:48:30;;;;;;;;;;;17.40;63.10;;;;;;5044773;28;828;-70
2023/03/19 12:50:57;;;;;;;;;;;17.40;63.10;;;;;;5040606;28;939;-69
2023/03/19 12:53:30;;;;;;;;;;;17.40;63.10;;;;;;5042912;28;1221;-70
2023/03/19 12:56:00;;;;;;;;;;;17.40;63.10;;;;;;5041626;28;1353;-70
2023/03/19 12:58:37;;;;;;;;;;;17.40;63.20;;;;;;5037698;28;1934;-70
2023/03/19 13:01:32;;;;;;;;;;;17.30;63.10;;;;;;5045764;28;1423;-71
2023/03/19 13:04:00;;;;;;;;;;;17.40;63.50;;;;;;5034083;28;1566;-69
2023/03/19 13:06:27;;;;;;;;;;;17.40;63.20;;;;;;5041214;28;1392;-69
2023/03/19 13:08:57;;;;;;;;;;;17.30;63.20;;;;;;5041238;28;1363;-68
2023/03/19 13:11:29;;;;;;;;;;;17.30;63.20;;;;;;5042303;28;1529;-71
2023/03/19 13:13:56;;;;;;;;;;;17.30;63.20;;;;;;5041361;28;1369;-69
2023/03/19 13:16:41;;;;;;;;;;;17.30;63.30;;;;;;5047153;28;1381;-72
2023/03/19 13:19:10;;;;;;;;;;;17.30;63.30;;;;;;5042149;28;1987;-69
2023/03/19 13:21:36;;;;;;;;;;;17.30;63.30;;;;;;5045377;28;1537;-70
2023/03/19 13:24:21;;;;;;;;;;;17.30;63.30;;;;;;5042295;28;1498;-70
2023/03/19 13:26:47;;;;;;;;;;;17.30;63.30;;;;;;5041926;28;1454;-69
2023/03/19 13:29:20;;;;;;;;;;;17.30;63.40;;;;;;5040685;28;1034;-70
2023/03/19 13:31:45;;;;;;;;;;;17.30;63.40;;;;;;5040232;28;881;-70
2023/03/19 13:34:19;;;;;;;;;;;17.30;63.40;;;;;;5037685;28;1287;-69
2023/03/19 13:36:46;;;;;;;;;;;17.30;63.40;;;;;;5039615;28;895;-70
2023/03/19 13:39:16;;;;;;;;;;;17.30;63.40;;;;;;5043204;28;802;-69
2023/03/19 13:41:41;;;;;;;;;;;17.30;63.50;;;;;;5045460;28;1316;-70
2023/03/19 13:44:24;;;;;;;;;;;17.30;63.50;;;;;;5037716;28;1385;-69
2023/03/19 13:46:50;;;;;;;;;;;17.30;63.50;;;;;;5038507;28;859;-69
2023/03/19 13:49:18;;;;;;;;;;;17.30;63.50;;;;;;5040144;28;882;-70
2023/03/19 13:51:46;;;;;;;;;;;17.20;63.50;;;;;;5045349;28;1055;-69
2023/03/19 13:54:11;;;;;;;;;;;17.30;63.50;;;;;;5037118;28;1366;-69
2023/03/19 13:56:57;;;;;;;;;;;17.30;63.60;;;;;;5041065;28;947;-69
2023/03/19 13:59:35;;;;;;;;;;;17.20;63.60;;;;;;5038034;28;828;-69
2023/03/19 14:02:01;;;;;;;;;;;17.20;63.60;;;;;;5037559;28;1358;-68
2023/03/19 14:04:28;;;;;;;;;;;17.20;63.60;;;;;;5037867;28;1365;-69
2023/03/19 14:07:12;;;;;;;;;;;17.20;63.60;;;;;;5037659;28;1039;-70
2023/03/19 14:09:37;;;;;;;;;;;17.20;63.60;;;;;;5040645;28;874;-69
2023/03/19 14:12:19;;;;;;;;;;;17.20;63.60;;;;;;5037481;28;1539;-70
2023/03/19 14:14:45;;;;;;;;;;;17.20;63.60;;;;;;5041822;28;1411;-69
2023/03/19 14:17:34;;;;;;;;;;;17.20;63.60;;;;;;5041014;28;1917;-71
2023/03/19 14:20:09;;;;;;;;;;;17.20;63.70;;;;;;5035690;28;1194;-68
2023/03/19 14:22:34;;;;;;;;;;;17.20;63.70;;;;;;5038598;28;1042;-68
2023/03/19 14:25:03;;;;;;;;;;;17.20;63.70;;;;;;5037035;28;1201;-69
2023/03/19 14:27:31;;;;;;;;;;;17.20;63.70;;;;;;5038751;28;863;-73
2023/03/19 14:30:01;;;;;;;;;;;17.20;63.70;;;;;;5038962;28;826;-72
2023/03/19 14:32:39;;;;;;;;;;;17.20;63.80;;;;;;5045269;28;974;-73
2023/03/19 14:35:05;;;;;;;;;;;17.20;63.80;;;;;;5042893;28;914;-73
2023/03/19 14:37:35;;;;;;;;;;;17.20;63.80;;;;;;5047565;28;1963;-73
2023/03/19 14:40:03;;;;;;;;;;;17.20;63.80;;;;;;5039187;28;1274;-72